createdAt,value
2018-01-24T00:00:07.056Z,1.60
2018-01-24T00:02:35.462Z,3.05
2018-01-24T00:05:02.939Z,1.58
2018-01-24T00:07:30.369Z,2.40
2018-01-24T00:09:57.834Z,1.50
2018-01-24T00:12:25.300Z,1.83
2018-01-24T00:14:52.791Z,1.77
2018-01-24T00:17:20.636Z,2.17
2018-01-24T00:19:48.511Z,1.87
2018-01-24T00:22:16.367Z,2.40
2018-01-24T00:24:44.215Z,1.90
2018-01-24T00:27:11.679Z,1.85
2018-01-24T00:29:40.039Z,2.50
2018-01-24T00:32:09.152Z,2.10
2018-01-24T00:34:36.630Z,1.85
2018-01-24T00:37:04.490Z,1.77
2018-01-24T00:39:32.360Z,2.37
2018-01-24T00:42:00.221Z,2.80
2018-01-24T00:44:28.155Z,1.80
2018-01-24T00:46:55.643Z,2.53
2018-01-24T00:49:23.103Z,2.12
2018-01-24T00:51:51.080Z,2.10
2018-01-24T00:54:18.934Z,2.37
2018-01-24T00:56:47.043Z,2.28
2018-01-24T00:59:14.530Z,3.00
2018-01-24T01:01:42.716Z,1.83
2018-01-24T01:04:10.220Z,1.90
2018-01-24T01:06:38.065Z,2.22
2018-01-24T01:09:05.545Z,1.90
2018-01-24T01:11:33.038Z,3.05
2018-01-24T01:14:00.499Z,2.05
2018-01-24T01:16:31.212Z,2.90
2018-01-24T01:18:58.646Z,1.87
2018-01-24T01:21:26.605Z,2.00
2018-01-24T01:23:54.438Z,2.10
2018-01-24T01:26:21.903Z,2.95
2018-01-24T01:28:49.337Z,2.10
2018-01-24T01:31:16.814Z,2.85
2018-01-24T01:33:45.114Z,2.65
2018-01-24T01:36:12.938Z,2.25
2018-01-24T01:38:41.307Z,2.83
2018-01-24T01:41:08.762Z,2.87
2018-01-24T01:43:36.208Z,1.67
2018-01-24T01:46:03.654Z,1.85
2018-01-24T01:48:31.896Z,2.10
2018-01-24T01:50:59.295Z,2.00
2018-01-24T01:53:26.731Z,2.15
2018-01-24T01:55:54.557Z,2.08
2018-01-24T01:58:22.046Z,1.50
2018-01-24T02:00:49.911Z,2.58
2018-01-24T02:03:19.701Z,2.40
2018-01-24T02:05:47.138Z,1.60
2018-01-24T02:08:14.579Z,2.22
2018-01-24T02:10:43.961Z,2.20
2018-01-24T02:13:12.306Z,2.45
2018-01-24T02:15:40.153Z,1.73
2018-01-24T02:18:07.609Z,2.30
2018-01-24T02:20:35.022Z,2.00
2018-01-24T02:23:02.490Z,2.42
2018-01-24T02:25:29.950Z,1.65
2018-01-24T02:27:57.407Z,2.47
2018-01-24T02:30:25.747Z,1.98
2018-01-24T02:32:53.598Z,2.20
2018-01-24T02:35:21.451Z,2.60
2018-01-24T02:37:48.894Z,1.87
2018-01-24T02:40:16.369Z,2.28
2018-01-24T02:42:43.894Z,2.08
2018-01-24T02:45:12.171Z,2.25
2018-01-24T02:47:39.605Z,2.70
2018-01-24T02:50:07.052Z,2.42
2018-01-24T02:52:34.885Z,2.37
2018-01-24T02:55:02.361Z,2.35
2018-01-24T02:57:30.204Z,2.67
2018-01-24T02:59:58.524Z,2.28
2018-01-24T03:02:26.768Z,2.42
2018-01-24T03:04:54.212Z,2.00
2018-01-24T03:07:21.682Z,2.37
2018-01-24T03:09:49.118Z,2.47
2018-01-24T03:12:16.584Z,2.25
2018-01-24T03:14:44.008Z,2.12
2018-01-24T03:17:11.456Z,2.62
2018-01-24T03:19:38.872Z,1.85
2018-01-24T03:22:07.264Z,2.05
2018-01-24T03:24:35.076Z,2.08
2018-01-24T03:27:03.445Z,1.92
2018-01-24T03:29:32.280Z,2.25
2018-01-24T03:31:59.697Z,2.03
2018-01-24T03:34:27.166Z,2.58
2018-01-24T03:36:55.484Z,2.90
2018-01-24T03:39:23.381Z,2.15
2018-01-24T03:41:50.850Z,2.70
2018-01-24T03:44:19.222Z,2.85
2018-01-24T03:46:47.699Z,2.08
2018-01-24T03:49:16.796Z,3.05
2018-01-24T03:51:44.226Z,2.10
2018-01-24T03:54:11.753Z,2.47
2018-01-24T03:56:39.216Z,2.08
2018-01-24T03:59:08.634Z,3.20
2018-01-24T04:01:37.410Z,1.55
2018-01-24T04:04:05.355Z,2.97
2018-01-24T04:06:32.804Z,2.50
2018-01-24T04:09:00.299Z,2.12
2018-01-24T04:11:27.751Z,2.12
2018-01-24T04:13:55.198Z,2.28
2018-01-24T04:16:22.623Z,2.40
2018-01-24T04:18:50.085Z,2.00
2018-01-24T04:21:17.523Z,2.40
2018-01-24T04:23:44.999Z,2.05
2018-01-24T04:26:12.426Z,2.95
2018-01-24T04:28:40.758Z,2.75
2018-01-24T04:31:08.261Z,2.35
2018-01-24T04:33:36.686Z,2.55
2018-01-24T04:36:04.130Z,1.60
2018-01-24T04:38:32.434Z,2.25
2018-01-24T04:41:00.802Z,1.92
2018-01-24T04:43:28.250Z,2.90
2018-01-24T04:46:18.922Z,2.92
2018-01-24T04:48:46.378Z,2.65
2018-01-24T05:03:07.173Z,2.40
2018-01-24T05:14:41.255Z,2.25
2018-01-24T05:17:09.608Z,2.17
2018-01-24T05:19:38.498Z,2.35
2018-01-24T05:22:07.826Z,2.20
2018-01-24T05:24:35.290Z,2.60
2018-01-24T05:27:02.834Z,2.30
2018-01-24T05:29:31.225Z,2.37
2018-01-24T05:31:58.678Z,3.15
2018-01-24T05:34:27.057Z,2.05
2018-01-24T05:36:55.379Z,1.90
2018-01-24T05:39:23.212Z,2.20
2018-01-24T05:41:50.662Z,2.30
2018-01-24T05:44:20.074Z,2.17
2018-01-24T05:46:47.518Z,2.78
2018-01-24T05:49:14.970Z,2.45
2018-01-24T05:51:43.292Z,2.50
2018-01-24T05:54:13.088Z,2.40
2018-01-24T05:56:41.441Z,3.35
2018-01-24T05:59:08.886Z,2.47
2018-01-24T06:01:36.815Z,2.87
2018-01-24T06:04:05.528Z,2.50
2018-01-24T06:06:32.964Z,2.65
2018-01-24T06:09:00.440Z,2.80
2018-01-24T06:11:28.629Z,2.22
2018-01-24T06:13:58.086Z,3.17
2018-01-24T06:16:25.532Z,2.20
2018-01-24T06:18:52.998Z,1.85
2018-01-24T06:21:20.862Z,1.80
2018-01-24T06:23:48.691Z,2.00
2018-01-24T06:26:16.149Z,2.17
2018-01-24T06:28:43.989Z,2.42
2018-01-24T06:31:11.478Z,2.20
2018-01-24T06:33:38.905Z,3.90
2018-01-24T06:36:06.369Z,2.97
2018-01-24T06:38:35.850Z,2.30
2018-01-24T06:41:03.677Z,2.30
2018-01-24T06:43:31.150Z,2.72
2018-01-24T06:46:00.290Z,1.90
2018-01-24T06:48:28.021Z,2.03
2018-01-24T06:50:56.767Z,2.33
2018-01-24T06:53:24.261Z,2.80
2018-01-24T06:55:56.313Z,3.12
2018-01-24T06:58:25.073Z,2.00
2018-01-24T07:00:52.646Z,3.53
2018-01-24T07:03:26.098Z,2.30
2018-01-24T07:05:54.295Z,2.15
2018-01-24T07:08:23.048Z,2.00
2018-01-24T07:10:50.494Z,2.35
2018-01-24T07:13:30.257Z,3.60
2018-01-24T07:15:58.509Z,2.42
2018-01-24T07:18:27.245Z,1.98
2018-01-24T07:20:54.701Z,2.17
2018-01-24T07:23:23.100Z,2.45
2018-01-24T07:25:50.558Z,1.80
2018-01-24T07:28:21.567Z,2.00
2018-01-24T07:30:48.998Z,2.15
2018-01-24T07:33:16.495Z,1.75
2018-01-24T07:35:44.003Z,2.72
2018-01-24T07:38:11.847Z,2.03
2018-01-24T07:40:41.270Z,2.50
2018-01-24T07:43:09.920Z,2.17
2018-01-24T07:45:37.386Z,4.20
2018-01-24T07:48:04.855Z,2.40
2018-01-24T07:50:32.331Z,2.33
2018-01-24T07:53:01.105Z,2.05
2018-01-24T07:55:28.562Z,2.95
2018-01-24T07:57:57.966Z,2.40
2018-01-24T08:00:28.624Z,2.03
2018-01-24T08:02:56.101Z,3.40
2018-01-24T08:05:23.574Z,3.25
2018-01-24T08:07:51.836Z,2.40
2018-01-24T08:10:20.611Z,2.70
2018-01-24T08:12:48.103Z,2.05
2018-01-24T08:15:15.579Z,2.20
2018-01-24T08:17:43.035Z,2.72
2018-01-24T08:20:10.595Z,3.17
2018-01-24T08:22:38.034Z,2.33
2018-01-24T08:25:05.522Z,2.53
2018-01-24T08:27:33.949Z,3.15
2018-01-24T08:30:03.054Z,2.80
2018-01-24T08:32:32.176Z,2.60
2018-01-24T08:35:00.574Z,2.58
2018-01-24T08:37:28.042Z,2.28
2018-01-24T08:39:55.501Z,2.20
2018-01-24T08:42:23.576Z,2.17
2018-01-24T08:44:51.422Z,2.65
2018-01-24T08:47:19.788Z,2.35
2018-01-24T08:49:48.240Z,2.70
2018-01-24T08:52:15.745Z,3.28
2018-01-24T08:54:44.087Z,2.20
2018-01-24T08:57:11.612Z,2.22
2018-01-24T08:59:39.939Z,2.12
2018-01-24T09:02:07.424Z,3.03
2018-01-24T09:04:35.748Z,2.65
2018-01-24T09:07:03.212Z,2.42
2018-01-24T09:09:31.546Z,2.67
2018-01-24T09:11:58.990Z,2.67
2018-01-24T09:14:28.840Z,2.33
2018-01-24T09:16:56.278Z,1.98
2018-01-24T09:19:23.707Z,2.50
2018-01-24T09:21:51.400Z,2.05
2018-01-24T09:24:23.374Z,1.87
2018-01-24T09:26:52.856Z,2.45
2018-01-24T09:29:21.615Z,2.62
2018-01-24T09:31:49.061Z,2.10
2018-01-24T09:34:16.828Z,2.20
2018-01-24T09:36:44.658Z,1.67
2018-01-24T09:39:14.460Z,2.12
2018-01-24T09:41:45.509Z,2.00
2018-01-24T09:44:12.950Z,1.60
2018-01-24T09:46:41.298Z,1.52
2018-01-24T09:49:09.146Z,1.50
2018-01-24T09:51:38.838Z,1.67
2018-01-24T09:54:07.952Z,1.75
2018-01-24T09:56:35.383Z,1.00
2018-01-24T09:59:03.926Z,1.48
2018-01-24T10:01:32.370Z,1.75
2018-01-24T10:03:59.846Z,1.25
2018-01-24T10:06:28.156Z,1.25
2018-01-24T10:08:58.050Z,1.55
2018-01-24T10:11:25.884Z,1.48
2018-01-24T10:13:53.378Z,1.23
2018-01-24T10:16:22.258Z,1.33
2018-01-24T10:18:49.886Z,1.25
2018-01-24T10:21:17.354Z,1.75
2018-01-24T10:23:44.785Z,1.58
2018-01-24T10:26:12.269Z,1.85
2018-01-24T10:28:40.201Z,1.80
2018-01-24T10:31:08.184Z,1.50
2018-01-24T10:33:35.631Z,1.50
2018-01-24T10:36:04.581Z,1.23
2018-01-24T10:38:32.451Z,2.37
2018-01-24T10:40:59.935Z,1.30
2018-01-24T10:43:27.369Z,1.40
2018-01-24T10:45:55.098Z,1.10
2018-01-24T10:48:22.540Z,1.52
2018-01-24T10:50:49.991Z,1.60
2018-01-24T10:53:17.441Z,2.58
2018-01-24T10:55:44.905Z,1.58
2018-01-24T10:58:12.610Z,1.80
2018-01-24T12:37:58.668Z,1.35
2018-01-24T12:45:58.448Z,1.30
2018-01-24T12:51:14.447Z,1.40
2018-01-24T12:53:49.597Z,1.45
2018-01-24T12:56:18.995Z,1.42
2018-01-24T12:58:46.980Z,1.52
2018-01-24T13:01:14.430Z,2.08
2018-01-24T13:03:52.099Z,1.60
2018-01-24T13:09:13.546Z,1.70
2018-01-24T13:11:41.004Z,1.40
2018-01-24T13:14:08.459Z,1.87
2018-01-24T13:16:36.831Z,1.75
2018-01-24T13:22:16.786Z,0.90
2018-01-24T13:24:46.097Z,1.00
2018-01-24T13:27:17.279Z,1.58
2018-01-24T13:29:45.372Z,1.33
2018-01-24T13:32:12.801Z,1.77
2018-01-24T13:34:57.182Z,1.10
2018-01-24T13:43:11.370Z,1.00
2018-01-24T13:46:02.137Z,1.00
2018-01-24T13:48:29.580Z,1.10
2018-01-24T13:50:58.746Z,1.00
2018-01-24T13:53:26.203Z,1.27
2018-01-24T13:55:54.046Z,1.30
2018-01-24T13:58:21.505Z,0.93
2018-01-24T14:00:48.948Z,1.50
2018-01-24T14:03:16.381Z,1.42
2018-01-24T14:05:43.870Z,1.02
2018-01-24T14:08:11.333Z,1.25
2018-01-24T14:10:38.774Z,1.00
2018-01-24T14:13:07.132Z,1.12
2018-01-24T14:15:34.591Z,0.82
2018-01-24T14:18:02.034Z,0.90
2018-01-24T14:20:29.534Z,0.90
2018-01-24T14:22:57.889Z,0.85
2018-01-24T14:25:25.355Z,1.02
2018-01-24T14:27:52.818Z,0.88
2018-01-24T14:30:20.242Z,1.05
2018-01-24T14:32:48.394Z,0.90
2018-01-24T14:35:15.879Z,1.00
2018-01-24T14:40:36.668Z,1.50
2018-01-24T14:43:17.058Z,1.00
2018-01-24T14:45:44.536Z,1.00
2018-01-24T14:48:29.103Z,0.80
2018-01-24T14:50:56.558Z,1.00
2018-01-24T14:53:24.933Z,1.40
2018-01-24T14:55:52.393Z,1.25
2018-01-24T14:58:23.837Z,1.00
2018-01-24T15:00:51.558Z,1.20
2018-01-24T15:03:20.710Z,1.20
2018-01-24T15:05:48.150Z,1.35
2018-01-24T15:08:15.615Z,1.05
2018-01-24T15:13:47.551Z,1.12
2018-01-24T15:16:16.639Z,1.10
2018-01-24T15:18:44.506Z,1.10
2018-01-24T15:21:15.066Z,1.45
2018-01-24T15:29:40.926Z,1.00
2018-01-24T15:32:09.155Z,1.45
2018-01-24T15:34:38.137Z,1.30
2018-01-24T15:37:07.964Z,1.08
2018-01-24T15:39:35.849Z,1.20
2018-01-24T15:42:14.611Z,0.95
2018-01-24T17:18:01.000Z,1.50
2018-01-24T17:28:59.416Z,1.12
2018-01-24T17:37:26.626Z,0.62
2018-01-24T17:42:55.099Z,1.05
2018-01-24T17:48:16.821Z,1.10
2018-01-24T17:51:00.939Z,0.93
2018-01-24T17:59:15.944Z,2.05
2018-01-24T18:01:44.884Z,2.70
2018-01-24T18:04:12.394Z,1.50
2018-01-24T18:06:52.564Z,1.20
2018-01-24T18:09:24.821Z,1.58
2018-01-24T18:28:28.639Z,1.60
2018-01-24T18:30:56.578Z,1.80
2018-01-24T18:33:25.531Z,1.45
2018-01-24T18:35:54.198Z,2.20
2018-01-24T18:38:28.217Z,1.50
2018-01-24T18:40:57.320Z,1.00
2018-01-24T18:53:31.415Z,1.05
2018-01-24T18:56:02.546Z,1.80
2018-01-24T18:58:31.977Z,1.48
2018-01-24T19:01:00.790Z,2.17
2018-01-24T19:06:32.589Z,1.45
2018-01-24T19:11:55.996Z,1.67
2018-01-24T19:17:22.187Z,2.72
2018-01-24T19:19:50.576Z,2.15
2018-01-24T19:22:18.077Z,1.60
2018-01-24T19:36:42.358Z,1.15
2018-01-24T19:39:11.150Z,2.00
2018-01-24T19:47:05.975Z,2.05
2018-01-24T20:04:01.135Z,1.70
2018-01-24T20:09:15.135Z,1.75
2018-01-24T20:14:37.025Z,1.50
2018-01-24T20:17:05.792Z,1.80
2018-01-24T20:19:37.990Z,1.20
2018-01-24T20:22:05.864Z,1.75
2018-01-24T20:24:37.895Z,1.83
2018-01-24T20:27:08.113Z,1.58
2018-01-24T20:29:38.719Z,1.73
2018-01-24T20:38:03.135Z,1.65
2018-01-24T20:43:56.915Z,2.30
2018-01-24T22:37:39.186Z,1.15
2018-01-24T22:40:13.408Z,1.45
2018-01-24T22:48:47.619Z,1.10
2018-01-24T22:51:31.943Z,1.00
2018-01-24T22:57:06.670Z,1.00
2018-01-24T23:02:29.330Z,1.70
2018-01-24T23:07:56.669Z,1.80
2018-01-24T23:10:24.121Z,1.40
2018-01-24T23:12:51.603Z,1.20
2018-01-24T23:15:22.068Z,1.00
2018-01-24T23:18:04.272Z,1.20
2018-01-24T23:29:17.612Z,1.45
2018-01-24T23:34:43.986Z,1.85
2018-01-24T23:37:32.305Z,1.35
2018-01-24T23:43:05.287Z,1.87
2018-01-24T23:48:37.750Z,1.60
